createdAt,value
2019-03-06T00:04:07.982Z,0
2019-03-06T00:09:07.469Z,0
2019-03-06T00:14:07.621Z,0
2019-03-06T00:19:07.352Z,0
2019-03-06T00:24:07.554Z,0
2019-03-06T00:29:08.523Z,0
2019-03-06T00:34:07.538Z,0
2019-03-06T00:39:07.987Z,0
2019-03-06T00:44:07.210Z,0
2019-03-06T00:49:07.231Z,0
2019-03-06T00:54:07.444Z,0
2019-03-06T00:59:07.668Z,0
2019-03-06T01:04:07.741Z,0
2019-03-06T01:09:07.478Z,0
2019-03-06T01:13:08.687Z,0
2019-03-06T01:18:07.630Z,0
2019-03-06T01:23:07.857Z,0
2019-03-06T01:28:07.133Z,0
2019-03-06T01:33:07.827Z,0
2019-03-06T01:38:07.071Z,0
2019-03-06T01:43:07.653Z,0
2019-03-06T01:48:07.434Z,0
2019-03-06T01:53:07.728Z,0
2019-03-06T01:58:08.091Z,0
2019-03-06T02:03:10.346Z,0
2019-03-06T02:07:12.051Z,0
2019-03-06T02:08:07.962Z,0
2019-03-06T02:12:08.290Z,0
2019-03-06T02:17:07.317Z,0
2019-03-06T02:22:07.534Z,0
2019-03-06T02:27:07.702Z,0
2019-03-06T02:32:08.073Z,0
2019-03-06T02:37:07.254Z,0
2019-03-06T02:42:07.967Z,0
2019-03-06T02:47:07.484Z,0
2019-03-06T02:52:07.853Z,0
2019-03-06T02:56:07.720Z,0
2019-03-06T03:01:07.661Z,0
2019-03-06T03:06:07.957Z,0
2019-03-06T03:11:07.527Z,0
2019-03-06T03:16:08.056Z,0
2019-03-06T03:21:07.273Z,0
2019-03-06T03:26:07.468Z,0
2019-03-06T03:30:08.971Z,0
2019-03-06T03:31:07.166Z,0
2019-03-06T03:35:07.209Z,0
2019-03-06T03:41:07.302Z,0
2019-03-06T03:45:08.626Z,0
2019-03-06T03:50:06.630Z,0
2019-03-06T03:55:07.163Z,0
2019-03-06T04:00:09.304Z,0
2019-03-06T04:05:06.414Z,0
2019-03-06T04:10:07.768Z,0
2019-03-06T04:15:07.694Z,0
2019-03-06T04:20:06.961Z,0
2019-03-06T04:24:07.510Z,0
2019-03-06T04:29:06.485Z,0
2019-03-06T04:34:06.815Z,0
2019-03-06T04:39:07.111Z,0
2019-03-06T04:44:07.565Z,0
2019-03-06T04:49:07.416Z,0
2019-03-06T04:54:07.580Z,0
2019-03-06T04:59:06.541Z,0
2019-03-06T05:04:07.156Z,0
2019-03-06T05:09:07.830Z,0
2019-03-06T05:14:07.592Z,1.67
2019-03-06T05:19:07.224Z,5
2019-03-06T05:24:07.527Z,12.5
2019-03-06T05:29:07.997Z,31.67
2019-03-06T05:34:07.153Z,80
2019-03-06T05:38:06.856Z,161.67
2019-03-06T05:44:07.333Z,236.67
2019-03-06T05:48:06.833Z,363.33
2019-03-06T05:53:07.100Z,551.67
2019-03-06T05:58:06.445Z,790.83
2019-03-06T06:03:07.203Z,1191.67
2019-03-06T06:08:07.823Z,1511.67
2019-03-06T06:13:06.954Z,1955
2019-03-06T06:18:07.033Z,2425.83
2019-03-06T06:23:06.311Z,2707.5
2019-03-06T06:28:07.106Z,3166.67
2019-03-06T06:33:06.922Z,3581.67
2019-03-06T06:38:07.119Z,4885
2019-03-06T06:43:07.101Z,5557.5
2019-03-06T06:48:06.269Z,6311.67
2019-03-06T06:53:06.539Z,6582.5
2019-03-06T06:58:08.212Z,7360.83
2019-03-06T07:03:09.025Z,7311.67
2019-03-06T07:08:06.876Z,11975
2019-03-06T07:13:07.531Z,13171.67
2019-03-06T07:18:07.578Z,14776.67
2019-03-06T07:23:06.747Z,13276.67
2019-03-06T07:28:06.942Z,15974.17
2019-03-06T07:33:06.915Z,17075.83
2019-03-06T07:37:06.431Z,16400
2019-03-06T07:42:06.942Z,14918.33
2019-03-06T07:47:06.839Z,18175
2019-03-06T07:52:07.505Z,15553.33
2019-03-06T07:57:06.971Z,20379.17
2019-03-06T08:02:06.794Z,22703.33
2019-03-06T08:07:07.800Z,24105.83
2019-03-06T08:12:07.235Z,26317.5
2019-03-06T08:17:07.138Z,29898.33
2019-03-06T08:22:07.909Z,16010
2019-03-06T08:26:08.973Z,27431.67
2019-03-06T08:31:07.362Z,26252.5
2019-03-06T08:36:07.187Z,27187.5
2019-03-06T08:41:07.794Z,25025.83
2019-03-06T08:46:07.063Z,23701.67
2019-03-06T08:51:08.149Z,21834.17
2019-03-06T08:56:07.642Z,24676.67
2019-03-06T09:01:07.588Z,29164.17
2019-03-06T09:06:07.056Z,30474.17
2019-03-06T09:11:07.239Z,27998.33
2019-03-06T09:15:12.109Z,23786.67
2019-03-06T09:16:07.965Z,23786.67
2019-03-06T09:20:07.752Z,30146.67
2019-03-06T09:25:07.774Z,29992.5
2019-03-06T09:30:16.915Z,29073.33
2019-03-06T09:35:07.655Z,29258.33
2019-03-06T09:40:08.519Z,30804.17
2019-03-06T09:45:08.907Z,36680.83
2019-03-06T09:49:11.405Z,36231.66
2019-03-06T09:54:07.097Z,34181.66
2019-03-06T09:59:06.425Z,33276.66
2019-03-06T10:04:06.882Z,32945
2019-03-06T10:09:07.566Z,31336.67
2019-03-06T10:14:06.809Z,33601.66
2019-03-06T10:19:07.935Z,33152.5
2019-03-06T10:24:07.548Z,34550.83
2019-03-06T10:28:06.893Z,34254.16
2019-03-06T10:33:06.614Z,36499.16
2019-03-06T10:38:06.904Z,38690.83
2019-03-06T10:43:07.074Z,34788.33
2019-03-06T10:48:06.800Z,20160.83
2019-03-06T10:53:06.277Z,40174.16
2019-03-06T10:57:08.068Z,41464.16
2019-03-06T11:02:06.217Z,38656.66
2019-03-06T11:07:07.111Z,36755
2019-03-06T11:12:06.716Z,36937.5
2019-03-06T11:17:06.596Z,33255
2019-03-06T11:22:07.736Z,33503.33
2019-03-06T11:27:06.961Z,32943.33
2019-03-06T11:32:07.088Z,26416.67
2019-03-06T11:36:07.030Z,39170
2019-03-06T11:41:06.659Z,30754.17
2019-03-06T11:46:07.309Z,37530
2019-03-06T11:47:08.035Z,37530
2019-03-06T11:52:07.773Z,36908.33
2019-03-06T11:57:06.364Z,36795
2019-03-06T12:01:07.439Z,36571.66
2019-03-06T12:07:07.683Z,44521.66
2019-03-06T12:11:07.435Z,35439.16
2019-03-06T12:16:07.173Z,36704.16
2019-03-06T12:21:06.641Z,34968.33
2019-03-06T12:26:07.658Z,32465
2019-03-06T12:31:08.282Z,32672.5
2019-03-06T12:36:06.826Z,33563.33
2019-03-06T12:40:12.096Z,33687.5
2019-03-06T12:45:08.863Z,35165
2019-03-06T12:50:07.875Z,29988.33
2019-03-06T12:55:06.727Z,30052.5
2019-03-06T13:00:08.832Z,25694.17
2019-03-06T13:05:07.181Z,23327.5
2019-03-06T13:10:06.911Z,39370
2019-03-06T13:14:07.322Z,25060
2019-03-06T13:20:09.227Z,35888.33
2019-03-06T13:25:09.522Z,36406.66
2019-03-06T13:30:08.604Z,30341.67
2019-03-06T13:35:07.569Z,20701.67
2019-03-06T13:40:07.195Z,21179.17
2019-03-06T13:45:08.527Z,18206.67
2019-03-06T13:50:06.772Z,16204.17
2019-03-06T13:54:07.345Z,18650
2019-03-06T13:55:06.874Z,18650
2019-03-06T13:59:06.540Z,18177.5
2019-03-06T14:04:06.209Z,22602.5
2019-03-06T14:09:07.579Z,20695
2019-03-06T14:14:06.800Z,20008.33
2019-03-06T14:19:06.705Z,16205
2019-03-06T14:24:07.053Z,16791.67
2019-03-06T14:29:06.697Z,14391.67
2019-03-06T14:33:07.442Z,13741.67
2019-03-06T14:38:07.382Z,14621.67
2019-03-06T14:43:06.891Z,15085
2019-03-06T14:48:07.205Z,14937.5
2019-03-06T14:53:07.521Z,17683.33
2019-03-06T14:58:06.760Z,20000.83
2019-03-06T15:02:08.646Z,19905.83
2019-03-06T15:07:07.287Z,12160.83
2019-03-06T15:12:06.830Z,9675
2019-03-06T15:17:06.880Z,8100
2019-03-06T15:22:07.762Z,7513.33
2019-03-06T15:27:07.459Z,7493.33
2019-03-06T15:32:07.549Z,7520.83
2019-03-06T15:37:06.746Z,9695
2019-03-06T15:42:06.528Z,10846.67
2019-03-06T15:47:06.421Z,10428.33
2019-03-06T15:52:06.695Z,8847.5
2019-03-06T15:56:07.295Z,7074.17
2019-03-06T16:01:06.800Z,7071.67
2019-03-06T16:06:07.122Z,5090.83
2019-03-06T16:11:06.962Z,3802.5
2019-03-06T16:16:06.581Z,2785.83
2019-03-06T16:21:06.943Z,2080.83
2019-03-06T16:26:07.529Z,1620
2019-03-06T16:31:07.940Z,1297.5
2019-03-06T16:36:07.525Z,1027.5
2019-03-06T16:41:06.899Z,760.83
2019-03-06T16:45:08.828Z,540
2019-03-06T16:46:07.498Z,540
2019-03-06T16:50:16.906Z,354.17
2019-03-06T16:55:07.442Z,214.17
2019-03-06T17:00:08.224Z,130.83
2019-03-06T17:05:06.923Z,75
2019-03-06T17:10:07.126Z,38.33
2019-03-06T17:15:08.618Z,17.5
2019-03-06T17:19:07.395Z,6.67
2019-03-06T17:25:07.704Z,2.5
2019-03-06T17:29:06.947Z,0.83
2019-03-06T17:34:07.227Z,0
2019-03-06T17:39:07.923Z,0
2019-03-06T17:44:07.143Z,0
2019-03-06T17:49:06.960Z,0
2019-03-06T17:54:07.273Z,0
2019-03-06T17:59:07.168Z,0
2019-03-06T18:04:07.576Z,0
2019-03-06T18:09:07.221Z,0
2019-03-06T18:14:08.131Z,0
2019-03-06T18:19:07.492Z,0
2019-03-06T18:23:07.730Z,0
2019-03-06T18:28:07.025Z,0
2019-03-06T18:33:06.849Z,0
2019-03-06T18:38:06.805Z,0
2019-03-06T18:43:06.937Z,0
2019-03-06T18:48:07.109Z,0
2019-03-06T18:53:07.419Z,0
2019-03-06T18:57:08.050Z,0
2019-03-06T18:58:07.255Z,0
2019-03-06T19:02:07.725Z,0
2019-03-06T19:07:06.980Z,0
2019-03-06T19:12:07.632Z,0
2019-03-06T19:17:07.480Z,0
2019-03-06T19:22:07.812Z,0
2019-03-06T19:27:07.170Z,0
2019-03-06T19:32:07.468Z,0
2019-03-06T19:37:06.797Z,0
2019-03-06T19:42:07.436Z,0
2019-03-06T19:46:07.208Z,0
2019-03-06T19:51:07.465Z,0
2019-03-06T19:56:07.751Z,0
2019-03-06T20:01:07.221Z,0
2019-03-06T20:06:07.499Z,0
2019-03-06T20:11:07.187Z,0
2019-03-06T20:16:06.774Z,0
2019-03-06T20:21:07.163Z,0
2019-03-06T20:26:16.511Z,0
2019-03-06T20:30:09.015Z,0
2019-03-06T20:31:07.965Z,0
2019-03-06T20:35:07.534Z,0
2019-03-06T20:36:06.732Z,0
2019-03-06T20:40:07.690Z,0
2019-03-06T20:45:08.618Z,0
2019-03-06T20:50:07.549Z,0
2019-03-06T20:55:06.894Z,0
2019-03-06T21:00:09.313Z,0
2019-03-06T21:05:07.494Z,0
2019-03-06T21:09:08.343Z,0
2019-03-06T21:10:07.679Z,0
2019-03-06T21:14:06.880Z,0
2019-03-06T21:19:07.024Z,0
2019-03-06T21:24:07.305Z,0
2019-03-06T21:29:07.586Z,0
2019-03-06T21:34:09.424Z,0
2019-03-06T21:39:08.279Z,0
2019-03-06T21:44:06.972Z,0
2019-03-06T21:49:06.903Z,0
2019-03-06T21:54:07.650Z,0
2019-03-06T21:59:07.507Z,0
2019-03-06T22:03:07.977Z,0
2019-03-06T22:09:07.822Z,0
2019-03-06T22:13:08.078Z,0
2019-03-06T22:18:07.008Z,0
2019-03-06T22:23:07.240Z,0
2019-03-06T22:28:07.554Z,0
2019-03-06T22:33:07.522Z,0
2019-03-06T22:38:07.251Z,0
2019-03-06T22:43:07.043Z,0
2019-03-06T22:48:08.025Z,0
2019-03-06T22:52:07.672Z,0
2019-03-06T22:53:07.163Z,0
2019-03-06T22:57:06.973Z,0
2019-03-06T23:02:06.793Z,0
2019-03-06T23:07:07.016Z,0
2019-03-06T23:12:06.600Z,0
2019-03-06T23:17:06.853Z,0
2019-03-06T23:23:07.495Z,0
2019-03-06T23:27:07.809Z,0
2019-03-06T23:32:07.137Z,0
2019-03-06T23:37:07.353Z,0
2019-03-06T23:42:06.974Z,0
2019-03-06T23:47:06.922Z,0
2019-03-06T23:52:07.243Z,0
2019-03-06T23:57:06.498Z,0
